3T6 weather

Clark Airport
Justin, Texas, United States

Public forecast

Using degrees Fahrenheit for public forecast. Weather courtesy of forecast.io.

Closest aviation weather report (METAR) to Clark Airport

Closest report is Denton Municipal Airport, 6.4 nm (11.8 km) NE. Retrieved 2020/08/08 22:53 UTC (45 minutes ago):

KDTO 082253Z 16014KT 10SM CLR 37/16 A3001 RMK AO2 SLP151 T03670161

Closest aviation forecast (TAF) to Clark Airport

Closest forecast is Fort Worth Alliance Airport, 8.8 nm (16.4 km) S. Retrieved 2020/08/08 18:21 UTC (5 hours ago):

TAF KAFW 081720Z 0818/0918 17012KT P6SM FEW250